Portada
METAR-TAF:

METAR-TAF

Aeroports :

Umiujaq, Quebec, Canadà

latitud: 56-32N, longitud: 076-31W, altitud: 71 m

Observació

L'informe es va fer fa 54 minuts, a les 21:00 UTC
Vent 33 kt del Est/Nord-Est amb ràfegues de 39 kt
Temperatura -16°C
Humitat 65%
Pressió 1007 hPa
Visibilitat: 24.1 km
Escasses núvols a una alçada de 5500 ft
Cel ennuvolat a una alçada de 14000 ft
Cel ennuvolat a una alçada de 26000 ft
torb baixa de neu

METAR: CYMU 282100Z 07033G39KT 15SM DRSN FEW055 BKN140 BKN260 M16/M21 A2975 RMK SC2AC3CI2 SLP086

Hora: 16:54 (21:54 UTC)


TAF: manca

Observacions i pronòstics meteorològics de més de 4000 aeroports (METAR i TAF).

Les estacions disponibles són els punts grocs i vermells al mapa.

Posi el ratolí al punt desitjat per veure el nom de l'estació.

Feu clic per veure les observacions i els pronòstics meteorològics.

Per canviar el mapa: feu clic els botons verds amb una creu de color negre per apropar; al botó verd amb un guió per allunyar la imatge; o en les fletxes verdes per a mapes adjacents.


METAR-TAF: